Terminal Aerodrome Forecast
Issued by NWS Charleston, WV

Current Version | Previous Version | Graphics & Text | Print | Product List | Glossary On
Versions: 1 2 3 4 5 6 7 8 9 10 11 12 13 14 15 16 17 18 19 20 21 22 23 24 25
000
FTUS41 KRLX 252300
TAFEKN
TAF
KEKN 252320Z 2600/2624 00000KT P6SM SKC
     FM260600 00000KT 5SM BR BKN120
      TEMPO 2608/2610 2SM BR SCT001
     FM261100 00000KT P6SM BKN120
     FM261600 23004KT P6SM SCT035
     FM262000 24007KT P6SM SCT045=

USA.gov is the U.S. government's official web portal to all federal, state and local government web resources and services.